GJT weather

Grand Junction Regional Airport
Grand Junction, Colorado, United States

Public forecast

Using degrees Fahrenheit for public forecast. Weather courtesy of forecast.io.

METAR (pilot weather report)

Retrieved 2019/05/19 23:53 UTC (26 minutes ago):

KGJT 192353Z 20016G35KT 10SM BKN110 17/M04 A2969 RMK AO2 PK WND 25035/2346 SLP014 T01721039 10200 20161 55007

TAF (pilot weather forecast)

Forecast is more than 12 hours old.

Retrieved 2019/05/19 00:22 UTC (24 hours ago):

TAF KGJT 192320Z 2000/2024 17015G30KT P6SM VCSH SCT070 BKN100 FM200200 14010G20KT P6SM -SHRA SCT035 BKN050 FM200700 12010KT P6SM SCT045 BKN100 FM201900 18006KT P6SM SCT035 OVC050